Aviation Digital Data Service (ADDS)

Output produced by TAFs form (1910 UTC 24 April 2017)
found at http://aviationweather.gov/adds/tafs/
 
KASE 241805Z 2418/2518 18012G25KT P6SM BKN070 
     FM242000 23015G25KT P6SM VCSH OVC060 
     FM250000 23008KT 6SM -SHRA OVC050 
     FM250300 26005KT 6SM -SHRA OVC030 
     FM250500 28005KT 2SM -SHRASN OVC015 
     FM250800 30004KT 2SM -SHSN OVC015